createdAt,value
2023-02-13T00:00:53.453Z,89.21
2023-02-13T00:02:26.655Z,89.25
2023-02-13T00:03:59.660Z,89.12
2023-02-13T00:05:31.290Z,89.25
2023-02-13T00:07:02.906Z,90.56
2023-02-13T00:08:34.525Z,89.64
2023-02-13T00:10:07.294Z,91.82
2023-02-13T00:11:38.904Z,90.92
2023-02-13T00:13:10.539Z,89.75
2023-02-13T00:14:42.166Z,90.87
2023-02-13T00:16:13.892Z,90.48
2023-02-13T00:17:46.904Z,90.06
2023-02-13T00:19:18.563Z,91.60
2023-02-13T00:20:58.221Z,89.86
2023-02-13T00:22:30.119Z,89.32
2023-02-13T00:24:01.750Z,89.09
2023-02-13T00:25:33.380Z,89.76
2023-02-13T00:27:04.986Z,89.16
2023-02-13T00:28:36.841Z,89.98
2023-02-13T00:30:09.451Z,91.31
2023-02-13T00:31:41.182Z,92.74
2023-02-13T00:33:16.466Z,89.83
2023-02-13T00:36:40.497Z,89.65
2023-02-13T00:38:14.589Z,89.80
2023-02-13T00:39:46.241Z,89.79
2023-02-13T00:41:18.035Z,89.63
2023-02-13T00:42:49.653Z,91.04
2023-02-13T00:44:21.265Z,91.71
2023-02-13T00:45:52.980Z,91.26
2023-02-13T00:47:24.645Z,90.14
2023-02-13T00:48:57.643Z,89.25
2023-02-13T00:50:29.265Z,90.59
2023-02-13T00:52:00.931Z,90.86
2023-02-13T00:53:32.898Z,89.71
2023-02-13T00:55:05.076Z,91.65
2023-02-13T00:56:36.726Z,91.44
2023-02-13T00:58:08.375Z,92.61
2023-02-13T00:59:39.978Z,90.64
2023-02-13T01:01:11.667Z,91.68
2023-02-13T01:02:43.359Z,91.72
2023-02-13T01:04:16.422Z,91.71
2023-02-13T01:05:48.149Z,92.19
2023-02-13T01:07:19.768Z,93.53
2023-02-13T01:08:51.383Z,92.89
2023-02-13T01:10:23.035Z,93.39
2023-02-13T01:11:54.652Z,93.64
2023-02-13T01:13:26.303Z,93.87
2023-02-13T01:14:57.909Z,90.88
2023-02-13T01:16:29.535Z,91.05
2023-02-13T01:18:01.280Z,91.01
2023-02-13T01:19:34.432Z,92.00
2023-02-13T01:21:07.085Z,93.06
2023-02-13T01:22:39.025Z,91.70
2023-02-13T01:24:10.674Z,93.21
2023-02-13T01:25:42.381Z,91.90
2023-02-13T01:27:13.993Z,93.05
2023-02-13T01:28:45.757Z,91.67
2023-02-13T01:30:18.231Z,93.68
2023-02-13T01:31:50.000Z,92.06
2023-02-13T01:33:22.056Z,91.49
2023-02-13T01:34:55.001Z,92.35
2023-02-13T01:36:26.763Z,90.97
2023-02-13T01:37:58.385Z,91.84
2023-02-13T01:39:30.138Z,94.11
2023-02-13T01:41:01.810Z,94.75
2023-02-13T01:42:34.716Z,93.40
2023-02-13T01:44:39.372Z,93.99
2023-02-13T01:46:11.220Z,95.02
2023-02-13T01:47:45.316Z,94.23
2023-02-13T01:49:18.767Z,93.88
2023-02-13T01:50:52.811Z,93.97
2023-02-13T01:52:24.456Z,94.01
2023-02-13T01:53:58.682Z,92.84
2023-02-13T01:55:30.332Z,94.37
2023-02-13T01:57:04.224Z,94.03
2023-02-13T01:58:36.259Z,94.70
2023-02-13T02:00:09.463Z,94.60
2023-02-13T02:01:41.262Z,94.77
2023-02-13T02:03:14.225Z,94.20
2023-02-13T02:04:45.889Z,92.30
2023-02-13T02:06:21.242Z,94.06
2023-02-13T02:07:52.888Z,93.34
2023-02-13T02:09:26.170Z,92.33
2023-02-13T02:10:59.738Z,92.36
2023-02-13T02:12:36.409Z,91.65
2023-02-13T02:14:08.346Z,92.08
2023-02-13T02:15:40.662Z,94.08
2023-02-13T02:17:12.381Z,91.84
2023-02-13T02:18:46.619Z,91.42
2023-02-13T02:20:25.414Z,92.26
2023-02-13T02:22:34.137Z,91.41
2023-02-13T02:24:17.920Z,91.05
2023-02-13T02:26:12.780Z,91.16
2023-02-13T02:28:10.803Z,91.55
2023-02-13T02:30:03.414Z,91.92
2023-02-13T02:31:48.974Z,92.09
2023-02-13T02:33:24.605Z,92.29
2023-02-13T02:34:58.907Z,91.40
2023-02-13T02:36:36.647Z,93.44
2023-02-13T02:38:25.971Z,92.02
2023-02-13T02:40:05.624Z,93.15
2023-02-13T02:41:46.154Z,92.34
2023-02-13T02:43:26.137Z,90.70
2023-02-13T02:45:02.467Z,91.41
2023-02-13T02:46:36.281Z,91.00
2023-02-13T02:48:29.172Z,91.69
2023-02-13T02:50:09.064Z,90.52
2023-02-13T02:51:43.734Z,90.81
2023-02-13T02:53:19.106Z,90.43
2023-02-13T02:55:06.492Z,91.15
2023-02-13T02:56:40.162Z,90.41
2023-02-13T02:58:34.179Z,90.44
2023-02-13T03:00:25.615Z,90.51
2023-02-13T03:02:16.125Z,91.20
2023-02-13T03:04:07.853Z,90.31
2023-02-13T03:05:58.190Z,89.81
2023-02-13T03:07:29.800Z,90.50
2023-02-13T03:09:20.432Z,90.37
2023-02-13T03:11:10.537Z,89.92
2023-02-13T03:13:02.952Z,91.07
2023-02-13T03:14:34.917Z,91.02
2023-02-13T03:16:25.341Z,92.07
2023-02-13T03:18:15.595Z,91.82
2023-02-13T03:20:15.298Z,91.23
2023-02-13T03:22:07.170Z,91.00
2023-02-13T03:23:44.875Z,91.74
2023-02-13T03:25:34.258Z,92.11
2023-02-13T03:27:08.540Z,91.70
2023-02-13T03:29:00.573Z,92.14
2023-02-13T03:30:39.065Z,90.69
2023-02-13T03:32:12.363Z,90.79
2023-02-13T03:33:52.145Z,91.03
2023-02-13T03:35:48.107Z,90.81
2023-02-13T03:37:39.504Z,90.62
2023-02-13T03:39:12.590Z,92.39
2023-02-13T03:41:07.312Z,94.24
2023-02-13T03:42:41.059Z,91.45
2023-02-13T03:44:15.648Z,90.41
2023-02-13T03:45:53.059Z,89.85
2023-02-13T03:47:24.777Z,90.35
2023-02-13T03:49:15.077Z,90.04
2023-02-13T03:50:48.058Z,89.81
2023-02-13T03:52:22.751Z,90.16
2023-02-13T03:53:56.033Z,90.15
2023-02-13T03:55:47.406Z,92.85
2023-02-13T03:57:38.852Z,91.93
2023-02-13T03:59:17.313Z,91.00
2023-02-13T04:00:50.566Z,91.06
2023-02-13T04:02:24.617Z,92.45
2023-02-13T04:03:57.589Z,91.78
2023-02-13T04:05:30.129Z,92.08
2023-02-13T04:07:04.698Z,93.41
2023-02-13T04:08:36.363Z,93.20
2023-02-13T04:10:10.149Z,92.37
2023-02-13T04:11:43.562Z,93.34
2023-02-13T04:13:16.263Z,91.77
2023-02-13T04:14:49.858Z,91.36
2023-02-13T04:16:22.089Z,91.55
2023-02-13T04:17:55.671Z,91.28
2023-02-13T04:19:27.323Z,93.42
2023-02-13T04:21:01.979Z,93.37
2023-02-13T04:22:34.983Z,93.57
2023-02-13T04:24:07.482Z,92.77
2023-02-13T04:25:40.366Z,91.46
2023-02-13T04:27:12.809Z,91.89
2023-02-13T04:28:44.473Z,93.82
2023-02-13T04:30:16.229Z,94.13
2023-02-13T04:31:47.953Z,93.77
2023-02-13T04:33:19.633Z,92.36
2023-02-13T04:34:51.255Z,91.23
2023-02-13T04:36:22.889Z,90.70
2023-02-13T04:37:55.845Z,91.61
2023-02-13T04:39:27.491Z,91.26
2023-02-13T04:40:59.473Z,91.02
2023-02-13T04:42:31.333Z,91.19
2023-02-13T04:44:03.024Z,91.01
2023-02-13T04:45:34.689Z,90.98
2023-02-13T04:47:06.290Z,90.42
2023-02-13T04:48:38.867Z,90.27
2023-02-13T04:50:10.961Z,90.78
2023-02-13T04:51:43.507Z,90.87
2023-02-13T04:53:20.200Z,93.13
2023-02-13T04:54:56.864Z,91.42
2023-02-13T04:56:44.247Z,91.62
2023-02-13T04:58:24.441Z,90.70
2023-02-13T05:00:13.175Z,92.16
2023-02-13T05:02:14.283Z,93.58
2023-02-13T05:03:52.068Z,93.08
2023-02-13T05:05:49.925Z,93.22
2023-02-13T05:07:35.628Z,92.00
2023-02-13T05:09:15.125Z,93.67
2023-02-13T05:10:54.312Z,94.48
2023-02-13T05:12:51.833Z,93.56
2023-02-13T05:14:28.661Z,94.35
2023-02-13T05:16:02.510Z,94.15
2023-02-13T05:17:43.170Z,93.80
2023-02-13T05:19:23.891Z,93.49
2023-02-13T05:21:31.713Z,93.22
2023-02-13T05:24:06.807Z,91.95
2023-02-13T05:25:47.196Z,94.10
2023-02-13T05:27:22.578Z,94.45
2023-02-13T05:29:12.807Z,93.03
2023-02-13T05:30:44.453Z,93.03
2023-02-13T05:32:16.317Z,92.74
2023-02-13T05:33:48.024Z,93.48
2023-02-13T05:35:19.625Z,92.62
2023-02-13T05:36:52.581Z,93.37
2023-02-13T05:38:25.956Z,93.24
2023-02-13T05:39:57.578Z,93.91
2023-02-13T05:41:30.538Z,92.34
2023-02-13T05:43:02.192Z,91.96
2023-02-13T05:44:33.802Z,91.29
2023-02-13T05:46:05.974Z,91.73
2023-02-13T05:47:37.799Z,91.29
2023-02-13T05:49:09.870Z,91.83
2023-02-13T05:50:41.654Z,91.72
2023-02-13T05:52:13.233Z,91.26
2023-02-13T05:53:44.852Z,92.60
2023-02-13T05:55:16.560Z,93.94
2023-02-13T05:56:49.659Z,92.36
2023-02-13T05:58:21.371Z,92.22
2023-02-13T05:59:52.996Z,91.69
2023-02-13T06:01:24.819Z,93.79
2023-02-13T06:02:56.453Z,93.72
2023-02-13T06:04:28.137Z,92.25
2023-02-13T06:05:59.766Z,92.01
2023-02-13T06:07:31.362Z,92.65
2023-02-13T06:09:03.069Z,92.24
2023-02-13T06:10:34.939Z,93.03
2023-02-13T06:12:08.135Z,92.88
2023-02-13T06:13:42.758Z,93.50
2023-02-13T06:15:14.379Z,94.20
2023-02-13T06:16:46.015Z,94.71
2023-02-13T06:18:17.641Z,94.77
2023-02-13T06:19:49.325Z,92.77
2023-02-13T06:21:22.503Z,93.18
2023-02-13T06:22:54.300Z,93.16
2023-02-13T06:24:26.162Z,92.89
2023-02-13T06:26:02.049Z,93.05
2023-02-13T06:27:35.167Z,92.40
2023-02-13T06:29:07.010Z,91.10
2023-02-13T06:30:38.683Z,92.65
2023-02-13T06:32:10.367Z,92.86
2023-02-13T06:33:42.024Z,92.88
2023-02-13T06:35:13.787Z,93.03
2023-02-13T06:36:45.395Z,92.96
2023-02-13T06:38:19.217Z,94.81
2023-02-13T06:39:50.826Z,93.73
2023-02-13T06:41:22.486Z,92.68
2023-02-13T06:42:55.607Z,92.74
2023-02-13T06:44:27.242Z,93.97
2023-02-13T06:45:58.921Z,93.06
2023-02-13T06:47:30.536Z,93.11
2023-02-13T06:49:02.189Z,93.20
2023-02-13T06:50:34.899Z,93.20
2023-02-13T06:52:06.579Z,92.71
2023-02-13T06:53:38.250Z,93.90
2023-02-13T06:55:09.859Z,93.52
2023-02-13T06:56:41.656Z,93.66
2023-02-13T06:58:14.679Z,93.27
2023-02-13T06:59:46.316Z,92.75
2023-02-13T07:01:17.998Z,92.29
2023-02-13T07:02:49.694Z,92.05
2023-02-13T07:04:21.347Z,93.42
2023-02-13T07:05:53.027Z,92.53
2023-02-13T07:07:24.788Z,92.14
2023-02-13T07:08:56.516Z,93.77
2023-02-13T07:10:28.253Z,93.29
2023-02-13T07:12:02.913Z,91.87
2023-02-13T07:13:35.907Z,93.52
2023-02-13T07:15:08.440Z,95.17
2023-02-13T07:16:40.025Z,94.73
2023-02-13T07:18:11.679Z,94.91
2023-02-13T07:19:43.294Z,93.09
2023-02-13T07:21:14.907Z,93.02
2023-02-13T07:22:46.519Z,92.00
2023-02-13T07:24:18.114Z,92.49
2023-02-13T07:25:49.786Z,92.64
2023-02-13T07:27:21.423Z,94.34
2023-02-13T07:29:09.251Z,94.58
2023-02-13T07:30:42.417Z,95.56
2023-02-13T07:32:14.141Z,95.23
2023-02-13T07:33:48.488Z,94.86
2023-02-13T07:35:20.078Z,94.30
2023-02-13T07:36:52.152Z,93.19
2023-02-13T07:38:23.801Z,94.24
2023-02-13T07:39:55.417Z,94.28
2023-02-13T07:41:27.179Z,94.15
2023-02-13T07:43:00.395Z,94.24
2023-02-13T07:44:33.422Z,93.59
2023-02-13T07:46:05.781Z,95.08
2023-02-13T07:47:37.464Z,95.10
2023-02-13T07:49:09.164Z,96.14
2023-02-13T07:50:40.794Z,96.47
2023-02-13T07:52:12.439Z,95.50
2023-02-13T07:53:44.456Z,94.84
2023-02-13T07:55:16.356Z,93.96
2023-02-13T07:56:47.985Z,94.67
2023-02-13T07:58:19.584Z,95.89
2023-02-13T07:59:52.637Z,94.51
2023-02-13T08:01:24.438Z,94.28
2023-02-13T08:02:57.839Z,94.81
2023-02-13T08:04:29.528Z,94.81
2023-02-13T08:06:01.188Z,95.99
2023-02-13T08:07:32.770Z,95.44
2023-02-13T08:09:22.945Z,95.10
2023-02-13T08:11:13.122Z,94.03
2023-02-13T08:12:44.742Z,93.90
2023-02-13T08:14:16.593Z,94.06
2023-02-13T08:15:49.545Z,94.14
2023-02-13T08:17:21.235Z,94.54
2023-02-13T08:18:53.161Z,94.98
2023-02-13T08:20:25.202Z,94.75
2023-02-13T08:21:56.978Z,94.80
2023-02-13T08:23:28.853Z,96.14
2023-02-13T08:25:00.562Z,95.79
2023-02-13T08:26:32.184Z,96.23
2023-02-13T08:28:04.066Z,95.85
2023-02-13T08:29:35.732Z,95.23
2023-02-13T08:31:12.045Z,95.01
2023-02-13T08:32:53.849Z,95.33
2023-02-13T08:34:26.339Z,95.68
2023-02-13T08:35:58.447Z,95.96
2023-02-13T08:37:30.343Z,96.23
2023-02-13T08:39:02.028Z,95.81
2023-02-13T08:40:34.047Z,96.63
2023-02-13T08:42:05.764Z,95.36
2023-02-13T08:43:37.416Z,94.35
2023-02-13T08:45:11.618Z,94.41
2023-02-13T08:46:44.633Z,93.86
2023-02-13T08:48:16.242Z,94.49
2023-02-13T08:49:47.862Z,94.17
2023-02-13T08:51:19.612Z,95.35
2023-02-13T08:52:51.233Z,94.49
2023-02-13T08:54:22.863Z,94.73
2023-02-13T08:55:54.714Z,95.02
2023-02-13T08:57:26.545Z,95.65
2023-02-13T08:58:58.284Z,96.22
2023-02-13T09:00:29.914Z,95.18
2023-02-13T09:02:02.903Z,95.33
2023-02-13T09:03:35.126Z,95.28
2023-02-13T09:05:06.972Z,96.67
2023-02-13T09:06:38.590Z,96.15
2023-02-13T09:08:11.809Z,95.70
2023-02-13T09:09:43.381Z,96.32
2023-02-13T09:11:15.013Z,96.25
2023-02-13T09:12:52.328Z,96.66
2023-02-13T09:14:25.071Z,96.09
2023-02-13T09:15:59.217Z,95.37
2023-02-13T09:17:32.501Z,94.73
2023-02-13T09:19:04.378Z,94.73
2023-02-13T09:20:36.371Z,95.42
2023-02-13T09:22:08.037Z,95.06
2023-02-13T09:23:40.346Z,93.94
2023-02-13T09:25:11.950Z,94.01
2023-02-13T09:26:43.657Z,94.37
2023-02-13T09:28:15.310Z,95.50
2023-02-13T09:29:47.272Z,95.35
2023-02-13T09:31:19.916Z,95.89
2023-02-13T09:32:53.397Z,95.22
2023-02-13T09:34:25.065Z,95.94
2023-02-13T09:35:56.987Z,95.44
2023-02-13T09:37:28.844Z,95.75
2023-02-13T09:39:00.823Z,95.49
2023-02-13T09:40:39.543Z,95.34
2023-02-13T09:42:16.797Z,94.88
2023-02-13T09:43:49.695Z,95.67
2023-02-13T09:45:21.852Z,95.76
2023-02-13T09:46:53.550Z,96.19
2023-02-13T09:48:29.030Z,96.45
2023-02-13T09:50:02.569Z,96.52
2023-02-13T09:51:34.617Z,96.93
2023-02-13T09:53:06.319Z,96.80
2023-02-13T09:54:38.176Z,96.11
2023-02-13T09:56:11.324Z,95.41
2023-02-13T09:57:44.169Z,96.26
2023-02-13T09:59:24.028Z,96.30
2023-02-13T10:00:57.242Z,95.67
2023-02-13T10:02:40.497Z,95.67
2023-02-13T10:04:25.491Z,96.59
2023-02-13T10:06:02.127Z,95.51
2023-02-13T10:07:37.167Z,95.11
2023-02-13T10:09:11.925Z,95.27
2023-02-13T10:10:50.560Z,95.33
2023-02-13T10:12:46.997Z,95.65
2023-02-13T10:14:19.386Z,94.73
2023-02-13T10:15:53.795Z,94.92
2023-02-13T10:17:28.521Z,94.93
2023-02-13T10:19:02.889Z,95.16
2023-02-13T10:20:37.516Z,94.38
2023-02-13T10:22:11.774Z,94.10
2023-02-13T10:23:44.690Z,94.24
2023-02-13T10:25:17.427Z,94.23
2023-02-13T10:26:49.087Z,94.89
2023-02-13T10:28:28.700Z,94.26
2023-02-13T10:30:12.648Z,94.46
2023-02-13T10:31:44.889Z,94.28
2023-02-13T10:33:21.290Z,93.73
2023-02-13T10:34:52.968Z,94.25
2023-02-13T10:36:27.200Z,93.63
2023-02-13T10:37:59.878Z,93.69
2023-02-13T10:39:31.626Z,93.09
2023-02-13T10:41:17.259Z,93.16
2023-02-13T10:42:53.242Z,93.43
2023-02-13T10:44:35.172Z,93.18
2023-02-13T10:46:14.757Z,94.46
2023-02-13T10:47:54.281Z,93.40
2023-02-13T10:49:49.436Z,92.83
2023-02-13T10:51:26.891Z,93.57
2023-02-13T10:53:06.032Z,92.78
2023-02-13T10:54:52.655Z,93.30
2023-02-13T10:56:26.701Z,92.83
2023-02-13T10:58:09.107Z,92.35
2023-02-13T10:59:50.555Z,92.67
2023-02-13T11:01:24.565Z,92.88
2023-02-13T11:02:56.399Z,92.44
2023-02-13T11:04:31.410Z,92.26
2023-02-13T11:06:06.662Z,92.06
2023-02-13T11:07:42.500Z,91.98
2023-02-13T11:09:14.149Z,91.52
2023-02-13T11:10:45.790Z,91.70
2023-02-13T11:12:24.807Z,91.59
2023-02-13T11:14:08.317Z,91.65
2023-02-13T11:15:40.075Z,91.32
2023-02-13T11:17:15.216Z,91.88
2023-02-13T11:18:51.344Z,92.15
2023-02-13T11:20:28.544Z,91.85
2023-02-13T11:22:03.327Z,91.54
2023-02-13T11:23:41.495Z,91.49
2023-02-13T11:25:26.757Z,91.04
2023-02-13T11:27:02.721Z,91.45
2023-02-13T11:28:36.317Z,91.89
2023-02-13T11:30:29.338Z,91.50
2023-02-13T11:32:17.282Z,92.27
2023-02-13T11:33:48.971Z,91.07
2023-02-13T11:35:28.662Z,90.90
2023-02-13T11:37:24.907Z,91.24
2023-02-13T11:39:02.292Z,90.79
2023-02-13T11:40:34.028Z,90.35
2023-02-13T11:42:06.411Z,90.43
2023-02-13T11:43:43.619Z,90.54
2023-02-13T11:45:21.094Z,90.59
2023-02-13T11:46:53.678Z,90.44
2023-02-13T11:48:25.462Z,90.12
2023-02-13T11:49:57.115Z,90.25
2023-02-13T11:51:36.597Z,90.44
2023-02-13T11:53:09.303Z,90.34
2023-02-13T11:54:42.827Z,90.20
2023-02-13T11:56:17.787Z,89.89
2023-02-13T11:57:56.940Z,89.41
2023-02-13T11:59:31.217Z,89.89
2023-02-13T12:01:27.034Z,89.79
2023-02-13T12:02:58.809Z,89.83
2023-02-13T12:04:30.780Z,89.44
2023-02-13T12:06:04.786Z,89.15
2023-02-13T12:07:39.592Z,89.88
2023-02-13T12:09:12.752Z,89.75
2023-02-13T12:10:46.293Z,89.86
2023-02-13T12:12:20.080Z,89.71
2023-02-13T12:13:52.081Z,89.23
2023-02-13T12:15:25.569Z,88.88
2023-02-13T12:16:59.677Z,90.21
2023-02-13T12:18:35.019Z,90.10
2023-02-13T12:20:12.754Z,89.94
2023-02-13T12:22:08.610Z,89.52
2023-02-13T12:23:42.400Z,89.89
2023-02-13T12:25:51.537Z,89.38
2023-02-13T12:27:28.065Z,89.21
2023-02-13T12:29:19.115Z,89.91
2023-02-13T12:31:15.931Z,89.17
2023-02-13T12:32:51.168Z,88.73
2023-02-13T12:34:30.574Z,88.89
2023-02-13T12:36:02.735Z,88.99
2023-02-13T12:37:47.233Z,88.97
2023-02-13T12:39:23.200Z,89.09
2023-02-13T12:41:14.178Z,88.74
2023-02-13T12:42:50.518Z,88.76
2023-02-13T12:44:31.937Z,89.60
2023-02-13T12:46:05.666Z,89.02
2023-02-13T12:47:39.008Z,89.59
2023-02-13T12:49:20.276Z,89.52
2023-02-13T12:50:57.215Z,89.04
2023-02-13T12:52:36.462Z,88.39
2023-02-13T12:54:15.880Z,88.84
2023-02-13T12:55:57.874Z,89.18
2023-02-13T12:57:37.489Z,89.18
2023-02-13T12:59:13.330Z,89.02
2023-02-13T13:00:49.653Z,88.74
2023-02-13T13:02:47.956Z,88.40
2023-02-13T13:04:21.848Z,89.78
2023-02-13T13:06:11.755Z,90.32
2023-02-13T13:07:52.495Z,89.90
2023-02-13T13:09:39.634Z,89.40
2023-02-13T13:11:18.929Z,88.25
2023-02-13T13:12:53.164Z,88.42
2023-02-13T13:14:29.533Z,89.38
2023-02-13T13:16:02.925Z,89.31
2023-02-13T13:17:42.810Z,88.58
2023-02-13T13:19:20.498Z,88.98
2023-02-13T13:21:11.882Z,88.08
2023-02-13T13:22:45.213Z,88.72
2023-02-13T13:24:24.118Z,88.20
2023-02-13T13:26:00.787Z,89.28
2023-02-13T13:27:33.853Z,88.93
2023-02-13T13:29:06.791Z,89.11
2023-02-13T13:30:39.809Z,87.95
2023-02-13T13:32:13.336Z,88.80
2023-02-13T13:33:46.069Z,88.54
2023-02-13T13:35:18.475Z,87.98
2023-02-13T13:36:51.476Z,88.79
2023-02-13T13:38:25.485Z,88.22
2023-02-13T13:39:59.563Z,88.14
2023-02-13T13:41:35.542Z,88.28
2023-02-13T13:43:14.102Z,88.41
2023-02-13T13:44:56.367Z,88.50
2023-02-13T13:46:34.487Z,88.14
2023-02-13T13:48:41.344Z,88.26
2023-02-13T13:50:18.603Z,88.40
2023-02-13T13:51:50.210Z,88.00
2023-02-13T13:53:23.545Z,87.98
2023-02-13T13:54:55.723Z,88.14
2023-02-13T13:56:30.524Z,87.66
2023-02-13T13:58:02.326Z,87.76
2023-02-13T14:00:23.079Z,87.60
2023-02-13T14:02:16.963Z,88.26
2023-02-13T14:03:48.979Z,88.68
2023-02-13T14:05:27.967Z,88.79
2023-02-13T14:07:16.020Z,88.39
2023-02-13T14:09:09.775Z,87.79
2023-02-13T14:11:24.973Z,87.70
2023-02-13T14:13:00.730Z,87.81
2023-02-13T14:14:49.895Z,88.21
2023-02-13T14:16:37.109Z,88.14
2023-02-13T14:18:19.224Z,87.98
2023-02-13T14:19:51.988Z,88.26
2023-02-13T14:21:24.041Z,87.46
2023-02-13T14:22:55.683Z,87.29
2023-02-13T14:24:34.515Z,87.36
2023-02-13T14:26:17.950Z,87.28
2023-02-13T14:27:56.107Z,88.01
2023-02-13T14:29:32.806Z,88.58
2023-02-13T14:31:05.996Z,87.88
2023-02-13T14:32:38.111Z,87.86
2023-02-13T14:34:18.341Z,87.72
2023-02-13T14:36:09.954Z,87.02
2023-02-13T14:37:50.185Z,87.25
2023-02-13T14:39:25.733Z,87.01
2023-02-13T14:40:58.002Z,87.48
2023-02-13T14:42:29.897Z,87.48
2023-02-13T14:44:01.690Z,87.10
2023-02-13T14:45:44.662Z,86.37
2023-02-13T14:47:24.690Z,86.45
2023-02-13T14:49:05.261Z,87.40
2023-02-13T14:50:48.658Z,86.78
2023-02-13T14:52:26.454Z,86.86
2023-02-13T14:54:03.953Z,86.85
2023-02-13T14:55:38.218Z,86.91
2023-02-13T14:57:14.397Z,87.79
2023-02-13T14:58:48.944Z,87.37
2023-02-13T15:00:28.351Z,87.47
2023-02-13T15:02:04.681Z,87.76
2023-02-13T15:03:38.641Z,87.64
2023-02-13T15:05:13.020Z,87.44
2023-02-13T15:06:46.076Z,86.73
2023-02-13T15:08:18.818Z,87.04
2023-02-13T15:09:54.555Z,87.23
2023-02-13T15:11:36.805Z,88.07
2023-02-13T15:13:14.192Z,87.71
2023-02-13T15:14:45.835Z,87.69
2023-02-13T15:16:19.175Z,87.98
2023-02-13T15:17:50.952Z,88.24
2023-02-13T15:19:22.965Z,88.19
2023-02-13T15:20:55.960Z,88.13
2023-02-13T15:22:32.678Z,88.12
2023-02-13T15:24:04.592Z,88.25
2023-02-13T15:25:37.333Z,88.45
2023-02-13T15:27:20.268Z,87.86
2023-02-13T15:29:01.870Z,88.22
2023-02-13T15:30:36.133Z,88.49
2023-02-13T15:32:19.809Z,87.97
2023-02-13T15:33:51.537Z,88.00
2023-02-13T15:35:24.186Z,88.81
2023-02-13T15:36:55.911Z,88.44
2023-02-13T15:38:30.777Z,88.12
2023-02-13T15:40:24.427Z,88.02
2023-02-13T15:41:56.919Z,88.41
2023-02-13T15:43:34.844Z,88.56
2023-02-13T15:45:15.749Z,88.44
2023-02-13T15:46:54.244Z,88.38
2023-02-13T15:48:25.986Z,88.01
2023-02-13T15:49:57.636Z,88.06
2023-02-13T15:51:34.059Z,88.29
2023-02-13T15:53:06.093Z,87.98
2023-02-13T15:54:47.782Z,88.22
2023-02-13T15:56:19.450Z,87.91
2023-02-13T15:57:51.790Z,88.18
2023-02-13T15:59:23.516Z,88.23
2023-02-13T16:00:55.510Z,88.18
2023-02-13T16:02:30.223Z,88.02
2023-02-13T16:04:03.667Z,88.38
2023-02-13T16:05:40.667Z,88.03
2023-02-13T16:07:12.890Z,88.61
2023-02-13T16:08:45.314Z,88.77
2023-02-13T16:10:24.342Z,88.59
2023-02-13T16:12:03.596Z,89.02
2023-02-13T16:13:35.218Z,88.52
2023-02-13T16:15:08.611Z,88.23
2023-02-13T16:16:48.385Z,88.38
2023-02-13T16:18:20.186Z,88.03
2023-02-13T16:19:56.885Z,88.02
2023-02-13T16:21:40.685Z,88.03
2023-02-13T16:23:19.545Z,88.44
2023-02-13T16:24:52.283Z,89.26
2023-02-13T16:26:25.304Z,88.64
2023-02-13T16:27:58.389Z,87.96
2023-02-13T16:29:30.163Z,88.58
2023-02-13T16:31:02.704Z,88.22
2023-02-13T16:32:38.252Z,88.06
2023-02-13T16:34:24.165Z,88.71
2023-02-13T16:35:56.642Z,88.80
2023-02-13T16:37:30.204Z,88.61
2023-02-13T16:39:11.100Z,89.22
2023-02-13T16:40:43.657Z,88.89
2023-02-13T16:42:19.240Z,89.07
2023-02-13T16:43:53.192Z,89.19
2023-02-13T16:45:25.041Z,89.14
2023-02-13T16:46:57.715Z,88.64
2023-02-13T16:48:29.358Z,87.79
2023-02-13T16:50:02.319Z,88.44
2023-02-13T16:51:36.656Z,88.24
2023-02-13T16:53:08.345Z,88.53
2023-02-13T16:54:48.008Z,88.78
2023-02-13T16:56:19.643Z,89.00
2023-02-13T16:57:52.684Z,89.06
2023-02-13T16:59:29.254Z,89.41
2023-02-13T17:01:03.543Z,89.20
2023-02-13T17:02:35.446Z,89.50
2023-02-13T17:04:13.498Z,89.27
2023-02-13T17:05:45.418Z,88.78
2023-02-13T17:07:22.171Z,88.54
2023-02-13T17:08:53.974Z,89.57
2023-02-13T17:10:30.861Z,89.22
2023-02-13T17:12:02.524Z,88.22
2023-02-13T17:13:35.560Z,89.01
2023-02-13T17:15:12.436Z,89.50
2023-02-13T17:16:44.100Z,88.88
2023-02-13T17:18:15.784Z,89.48
2023-02-13T17:19:47.437Z,88.95
2023-02-13T17:21:19.039Z,89.01
2023-02-13T17:22:51.286Z,88.53
2023-02-13T17:24:22.946Z,88.85
2023-02-13T17:25:54.521Z,88.41
2023-02-13T17:27:26.274Z,88.38
2023-02-13T17:28:59.362Z,88.86
2023-02-13T17:30:32.041Z,88.47
2023-02-13T17:32:03.716Z,87.99
2023-02-13T17:33:35.495Z,88.39
2023-02-13T17:35:07.498Z,88.26
2023-02-13T17:36:39.333Z,87.64
2023-02-13T17:38:11.049Z,88.96
2023-02-13T17:39:42.674Z,89.18
2023-02-13T17:41:14.945Z,88.79
2023-02-13T17:42:47.367Z,88.85
2023-02-13T17:44:20.560Z,88.55
2023-02-13T17:45:52.876Z,88.94
2023-02-13T17:47:24.695Z,88.95
2023-02-13T17:48:56.346Z,88.67
2023-02-13T17:50:28.645Z,89.08
2023-02-13T17:52:01.941Z,88.26
2023-02-13T17:53:33.640Z,88.62
2023-02-13T17:55:06.075Z,89.16
2023-02-13T17:56:42.933Z,88.76
2023-02-13T17:58:14.620Z,88.38
2023-02-13T17:59:50.781Z,88.79
2023-02-13T18:01:25.290Z,88.82
2023-02-13T18:02:57.302Z,89.33
2023-02-13T18:04:31.601Z,89.19
2023-02-13T18:06:03.987Z,88.63
2023-02-13T18:07:35.637Z,88.92
2023-02-13T18:09:07.280Z,89.49
2023-02-13T18:10:39.517Z,88.75
2023-02-13T18:12:18.146Z,88.69
2023-02-13T18:13:49.836Z,89.12
2023-02-13T18:15:23.155Z,90.08
2023-02-13T18:16:55.896Z,90.25
2023-02-13T18:18:27.589Z,89.37
2023-02-13T18:19:59.276Z,89.14
2023-02-13T18:21:30.888Z,88.66
2023-02-13T18:23:02.774Z,88.20
2023-02-13T18:24:35.487Z,88.68
2023-02-13T18:26:08.201Z,88.41
2023-02-13T18:27:39.817Z,88.38
2023-02-13T18:29:11.526Z,89.29
2023-02-13T18:30:47.704Z,89.94
2023-02-13T18:32:19.423Z,90.26
2023-02-13T18:33:51.084Z,89.19
2023-02-13T18:35:22.976Z,89.21
2023-02-13T18:36:54.635Z,88.98
2023-02-13T18:38:26.445Z,89.80
2023-02-13T18:39:58.102Z,89.11
2023-02-13T18:41:37.989Z,88.75
2023-02-13T18:43:09.794Z,89.06
2023-02-13T18:44:44.178Z,88.50
2023-02-13T18:46:17.437Z,88.43
2023-02-13T18:47:49.140Z,90.09
2023-02-13T18:49:23.583Z,89.43
2023-02-13T18:50:55.259Z,89.19
2023-02-13T18:52:26.955Z,89.03
2023-02-13T18:54:00.229Z,88.32
2023-02-13T18:55:31.944Z,88.78
2023-02-13T18:57:03.745Z,88.61
2023-02-13T18:58:35.810Z,88.66
2023-02-13T19:00:08.697Z,88.72
2023-02-13T19:01:42.276Z,88.47
2023-02-13T19:03:13.976Z,88.06
2023-02-13T19:04:45.652Z,88.82
2023-02-13T19:06:18.312Z,88.40
2023-02-13T19:07:50.124Z,88.86
2023-02-13T19:09:33.339Z,88.47
2023-02-13T19:11:05.603Z,87.92
2023-02-13T19:12:37.566Z,89.29
2023-02-13T19:14:11.766Z,89.42
2023-02-13T19:15:43.430Z,89.72
2023-02-13T19:17:19.113Z,89.90
2023-02-13T19:19:05.148Z,89.30
2023-02-13T19:20:43.770Z,89.51
2023-02-13T19:22:16.235Z,89.34
2023-02-13T19:23:53.722Z,89.09
2023-02-13T19:25:26.108Z,89.44
2023-02-13T19:27:08.304Z,88.92
2023-02-13T19:28:43.473Z,88.88
2023-02-13T19:30:20.300Z,89.15
2023-02-13T19:31:52.327Z,90.01
2023-02-13T19:33:25.647Z,90.39
2023-02-13T19:34:57.820Z,89.35
2023-02-13T19:36:30.278Z,88.86
2023-02-13T19:38:02.164Z,90.15
2023-02-13T19:39:34.305Z,89.54
2023-02-13T19:41:06.405Z,89.41
2023-02-13T19:42:40.154Z,90.19
2023-02-13T19:44:12.233Z,90.66
2023-02-13T19:45:49.991Z,91.24
2023-02-13T19:47:22.648Z,89.97
2023-02-13T19:48:56.060Z,89.97
2023-02-13T19:50:28.060Z,90.42
2023-02-13T19:51:59.896Z,90.06
2023-02-13T19:53:31.970Z,90.24
2023-02-13T19:55:09.151Z,90.58
2023-02-13T19:56:41.024Z,90.94
2023-02-13T19:58:48.244Z,90.74
2023-02-13T20:00:54.383Z,90.51
2023-02-13T20:02:26.794Z,90.28
2023-02-13T20:04:01.278Z,90.99
2023-02-13T20:05:38.032Z,90.86
2023-02-13T20:07:12.251Z,89.70
2023-02-13T20:08:44.275Z,89.73
2023-02-13T20:10:16.038Z,90.12
2023-02-13T20:11:47.813Z,91.39
2023-02-13T20:13:19.584Z,90.89
2023-02-13T20:14:51.307Z,90.51
2023-02-13T20:16:24.478Z,90.76
2023-02-13T20:17:56.283Z,91.53
2023-02-13T20:19:40.793Z,91.85
2023-02-13T20:21:21.923Z,92.31
2023-02-13T20:23:06.634Z,91.34
2023-02-13T20:24:42.538Z,92.38
2023-02-13T20:26:14.768Z,92.59
2023-02-13T20:27:46.487Z,91.32
2023-02-13T20:29:18.219Z,92.66
2023-02-13T20:30:53.377Z,91.20
2023-02-13T20:32:25.615Z,91.19
2023-02-13T20:33:58.034Z,90.95
2023-02-13T20:35:31.157Z,90.94